Time,TemperatureF,DewpointF,PressureIn,WindDirection,WindDirectionDegrees,WindSpeedMPH,WindSpeedGustMPH,Humidity,HourlyPrecipIn,Conditions,Clouds,dailyrainin,SoftwareType,DateUTC
2013-11-27 00:00:00,44.9,31.0,30.48,SW,230,1.0,3.0,58,0.00,,,0.00,Wunderground v.1.15,2013-11-27 08:00:00,
2013-11-27 00:10:00,44.3,30.9,30.48,SW,230,1.0,3.0,59,0.00,,,0.00,Wunderground v.1.15,2013-11-27 08:10:00,
2013-11-27 00:15:00,44.7,30.8,30.48,SW,230,1.0,3.0,58,0.00,,,0.00,Wunderground v.1.15,2013-11-27 08:15:00,
2013-11-27 00:20:00,45.0,30.7,30.48,SW,230,2.0,4.0,57,0.00,,,0.00,Wunderground v.1.15,2013-11-27 08:20:00,
2013-11-27 00:30:00,45.4,30.6,30.48,SW,230,2.0,2.0,56,0.00,,,0.00,Wunderground v.1.15,2013-11-27 08:30:00,
2013-11-27 00:35:00,45.8,30.5,30.48,SW,230,2.0,2.0,55,0.00,,,0.00,Wunderground v.1.15,2013-11-27 08:35:00,
2013-11-27 00:45:00,45.6,31.2,30.48,SW,230,0.0,2.0,57,0.00,,,0.00,Wunderground v.1.15,2013-11-27 08:45:00,
2013-11-27 00:50:00,45.2,31.3,30.48,SW,230,0.0,4.0,58,0.00,,,0.00,Wunderground v.1.15,2013-11-27 08:50:00,
2013-11-27 00:55:00,45.0,31.5,30.48,SW,230,0.0,4.0,59,0.00,,,0.00,Wunderground v.1.15,2013-11-27 08:55:00,
2013-11-27 01:05:00,44.9,31.0,30.47,SW,230,1.0,4.0,58,0.00,,,0.00,Wunderground v.1.15,2013-11-27 09:05:00,
2013-11-27 01:15:00,46.4,31.1,30.47,SW,230,2.0,4.0,55,0.00,,,0.00,Wunderground v.1.15,2013-11-27 09:15:00,
2013-11-27 01:20:00,47.0,31.2,30.47,SW,230,1.0,4.0,54,0.00,,,0.00,Wunderground v.1.15,2013-11-27 09:20:00,
2013-11-27 01:30:00,48.0,31.2,30.46,SW,230,2.0,4.0,52,0.00,,,0.00,Wunderground v.1.15,2013-11-27 09:30:00,
2013-11-27 01:35:00,48.2,31.4,30.46,SW,230,2.0,4.0,52,0.00,,,0.00,Wunderground v.1.15,2013-11-27 09:35:00,
2013-11-27 01:45:00,48.3,31.5,30.46,SW,230,2.0,4.0,52,0.00,,,0.00,Wunderground v.1.15,2013-11-27 09:45:00,
2013-11-27 01:50:00,48.1,31.3,30.46,SW,230,2.0,5.0,52,0.00,,,0.00,Wunderground v.1.15,2013-11-27 09:50:00,
2013-11-27 01:55:00,48.1,31.3,30.46,SW,230,2.0,5.0,52,0.00,,,0.00,Wunderground v.1.15,2013-11-27 09:55:00,
2013-11-27 02:00:00,48.2,30.9,30.46,SW,230,2.0,5.0,51,0.00,,,0.00,Wunderground v.1.15,2013-11-27 10:00:00,
2013-11-27 02:05:00,48.2,31.4,30.46,SW,230,2.0,5.0,52,0.00,,,0.00,Wunderground v.1.15,2013-11-27 10:05:00,
2013-11-27 02:15:00,47.6,31.8,30.46,SW,230,2.0,5.0,54,0.00,,,0.00,Wunderground v.1.15,2013-11-27 10:15:00,
2013-11-27 02:20:00,46.7,31.4,30.46,WSW,246,3.0,6.0,55,0.00,,,0.00,Wunderground v.1.15,2013-11-27 10:20:00,
2013-11-27 02:30:00,46.6,31.3,30.45,West,260,4.0,4.0,55,0.00,,,0.00,Wunderground v.1.15,2013-11-27 10:30:00,
2013-11-27 02:35:00,46.8,31.5,30.46,West,260,3.0,5.0,55,0.00,,,0.00,Wunderground v.1.15,2013-11-27 10:35:00,
2013-11-27 02:45:00,47.3,31.0,30.45,West,260,2.0,5.0,53,0.00,,,0.00,Wunderground v.1.15,2013-11-27 10:45:00,
2013-11-27 02:50:00,47.0,31.7,30.45,West,260,0.0,9.0,55,0.00,,,0.00,Wunderground v.1.15,2013-11-27 10:50:00,
2013-11-27 03:00:00,46.3,31.4,30.45,West,260,1.0,9.0,56,0.00,,,0.00,Wunderground v.1.15,2013-11-27 11:00:00,
2013-11-27 03:05:00,46.0,31.6,30.45,West,260,2.0,9.0,57,0.00,,,0.00,Wunderground v.1.15,2013-11-27 11:05:00,
2013-11-27 03:15:00,45.7,31.8,30.45,West,260,2.0,9.0,58,0.00,,,0.00,Wunderground v.1.15,2013-11-27 11:15:00,
2013-11-27 03:20:00,45.8,31.4,30.44,West,260,2.0,5.0,57,0.00,,,0.00,Wunderground v.1.15,2013-11-27 11:20:00,
2013-11-27 03:25:00,45.9,31.5,30.44,West,260,2.0,5.0,57,0.00,,,0.00,Wunderground v.1.15,2013-11-27 11:25:00,
2013-11-27 03:30:00,46.3,31.4,30.44,West,260,2.0,5.0,56,0.00,,,0.00,Wunderground v.1.15,2013-11-27 11:30:00,
2013-11-27 03:35:00,46.3,31.4,30.44,West,260,2.0,5.0,56,0.00,,,0.00,Wunderground v.1.15,2013-11-27 11:35:00,
2013-11-27 03:40:00,46.1,31.3,30.44,West,260,3.0,3.0,56,0.00,,,0.00,Wunderground v.1.15,2013-11-27 11:40:00,
2013-11-27 03:50:00,46.4,31.1,30.44,West,260,2.0,2.0,55,0.00,,,0.00,Wunderground v.1.15,2013-11-27 11:50:00,
2013-11-27 03:55:00,46.5,31.2,30.44,West,260,1.0,5.0,55,0.00,,,0.00,Wunderground v.1.15,2013-11-27 11:55:00,
2013-11-27 04:00:00,46.0,31.2,30.44,West,260,1.0,5.0,56,0.00,,,0.00,Wunderground v.1.15,2013-11-27 12:00:00,
2013-11-27 04:05:00,45.4,31.0,30.44,West,260,3.0,5.0,57,0.00,,,0.00,Wunderground v.1.15,2013-11-27 12:05:00,
2013-11-27 04:15:00,45.8,31.0,30.44,West,260,4.0,5.0,56,0.00,,,0.00,Wunderground v.1.15,2013-11-27 12:15:00,
2013-11-27 04:20:00,46.4,31.1,30.43,West,260,3.0,6.0,55,0.00,,,0.00,Wunderground v.1.15,2013-11-27 12:20:00,
2013-11-27 04:30:00,47.5,31.2,30.43,West,260,3.0,6.0,53,0.00,,,0.00,Wunderground v.1.15,2013-11-27 12:30:00,
2013-11-27 04:35:00,47.6,31.3,30.43,West,260,3.0,6.0,53,0.00,,,0.00,Wunderground v.1.15,2013-11-27 12:35:00,
2013-11-27 04:45:00,47.2,31.8,30.43,West,260,3.0,6.0,55,0.00,,,0.00,Wunderground v.1.15,2013-11-27 12:45:00,
2013-11-27 04:50:00,46.9,32.0,30.43,West,260,3.0,6.0,56,0.00,,,0.00,Wunderground v.1.15,2013-11-27 12:50:00,
2013-11-27 05:00:00,46.5,32.1,30.43,West,260,3.0,3.0,57,0.00,,,0.00,Wunderground v.1.15,2013-11-27 13:00:00,
2013-11-27 05:05:00,46.6,32.2,30.43,West,260,3.0,6.0,57,0.00,,,0.00,Wunderground v.1.15,2013-11-27 13:05:00,
2013-11-27 05:15:00,46.8,31.9,30.43,West,260,3.0,6.0,56,0.00,,,0.00,Wunderground v.1.15,2013-11-27 13:15:00,
2013-11-27 05:20:00,47.3,32.4,30.43,West,260,3.0,5.0,56,0.00,,,0.00,Wunderground v.1.15,2013-11-27 13:20:00,
2013-11-27 05:30:00,47.4,32.0,30.43,West,260,3.0,3.0,55,0.00,,,0.00,Wunderground v.1.15,2013-11-27 13:30:00,
2013-11-27 05:35:00,47.4,32.0,30.43,West,260,2.0,5.0,55,0.00,,,0.00,Wunderground v.1.15,2013-11-27 13:35:00,
2013-11-27 05:45:00,47.6,32.7,30.43,West,260,2.0,5.0,56,0.00,,,0.00,Wunderground v.1.15,2013-11-27 13:45:00,
2013-11-27 05:50:00,47.5,32.6,30.43,West,260,3.0,3.0,56,0.00,,,0.00,Wunderground v.1.15,2013-11-27 13:50:00,
2013-11-27 06:00:00,47.5,33.0,30.42,West,260,2.0,5.0,57,0.00,,,0.00,Wunderground v.1.15,2013-11-27 14:00:00,
2013-11-27 06:05:00,47.5,33.0,30.43,West,260,3.0,5.0,57,0.00,,,0.00,Wunderground v.1.15,2013-11-27 14:05:00,
2013-11-27 06:15:00,46.8,33.2,30.42,West,260,2.0,5.0,59,0.00,,,0.00,Wunderground v.1.15,2013-11-27 14:15:00,
2013-11-27 06:20:00,46.6,33.0,30.43,West,260,2.0,4.0,59,0.00,,,0.00,Wunderground v.1.15,2013-11-27 14:20:00,
2013-11-27 06:25:00,46.5,32.5,30.43,West,260,2.0,4.0,58,0.00,,,0.00,Wunderground v.1.15,2013-11-27 14:25:00,
2013-11-27 06:35:00,46.2,32.2,30.43,West,260,3.0,4.0,58,0.00,,,0.00,Wunderground v.1.15,2013-11-27 14:35:00,
2013-11-27 06:45:00,46.2,32.2,30.43,West,260,3.0,4.0,58,0.00,,,0.00,Wunderground v.1.15,2013-11-27 14:45:00,
2013-11-27 06:50:00,46.2,32.2,30.43,West,260,2.0,2.0,58,0.00,,,0.00,Wunderground v.1.15,2013-11-27 14:50:00,
2013-11-27 07:00:00,46.0,32.5,30.43,West,260,2.0,4.0,59,0.00,,,0.00,Wunderground v.1.15,2013-11-27 15:00:00,
2013-11-27 07:05:00,45.6,32.5,30.43,West,260,2.0,4.0,60,0.00,,,0.00,Wunderground v.1.15,2013-11-27 15:05:00,
2013-11-27 07:15:00,45.2,32.5,30.43,West,260,2.0,4.0,61,0.00,,,0.00,Wunderground v.1.15,2013-11-27 15:15:00,
2013-11-27 07:20:00,45.1,32.8,30.43,West,260,2.0,4.0,62,0.00,,,0.00,Wunderground v.1.15,2013-11-27 15:20:00,
2013-11-27 07:25:00,45.5,33.2,30.43,West,260,2.0,4.0,62,0.00,,,0.00,Wunderground v.1.15,2013-11-27 15:25:00,
2013-11-27 07:30:00,46.1,33.0,30.43,West,260,3.0,4.0,60,0.00,,,0.00,Wunderground v.1.15,2013-11-27 15:30:00,
2013-11-27 07:35:00,46.7,33.5,30.43,West,260,3.0,4.0,60,0.00,,,0.00,Wunderground v.1.15,2013-11-27 15:35:00,
2013-11-27 07:45:00,47.7,33.6,30.43,West,260,3.0,4.0,58,0.00,,,0.00,Wunderground v.1.15,2013-11-27 15:45:00,
2013-11-27 07:50:00,48.1,34.0,30.43,West,260,3.0,5.0,58,0.00,,,0.00,Wunderground v.1.15,2013-11-27 15:50:00,
2013-11-27 08:00:00,48.6,34.0,30.42,West,260,2.0,2.0,57,0.00,,,0.00,Wunderground v.1.15,2013-11-27 16:00:00,
2013-11-27 08:05:00,49.0,34.0,30.43,West,260,1.0,5.0,56,0.00,,,0.00,Wunderground v.1.15,2013-11-27 16:05:00,
2013-11-27 08:10:00,49.3,34.3,30.43,West,260,0.0,5.0,56,0.00,,,0.00,Wunderground v.1.15,2013-11-27 16:10:00,
2013-11-27 08:20:00,49.8,34.3,30.43,West,260,0.0,6.0,55,0.00,,,0.00,Wunderground v.1.15,2013-11-27 16:20:00,
2013-11-27 08:30:00,50.3,34.3,30.43,West,260,0.0,6.0,54,0.00,,,0.00,Wunderground v.1.15,2013-11-27 16:30:00,
2013-11-27 08:35:00,50.5,35.4,30.43,West,260,0.0,6.0,56,0.00,,,0.00,Wunderground v.1.15,2013-11-27 16:35:00,
2013-11-27 08:45:00,51.0,33.5,30.43,West,260,0.0,6.0,51,0.00,,,0.00,Wunderground v.1.15,2013-11-27 16:45:00,
2013-11-27 08:50:00,51.4,33.9,30.43,West,260,1.0,2.0,51,0.00,,,0.00,Wunderground v.1.15,2013-11-27 16:50:00,
2013-11-27 09:00:00,52.1,33.5,30.43,West,260,2.0,2.0,49,0.00,,,0.00,Wunderground v.1.15,2013-11-27 17:00:00,
2013-11-27 09:05:00,52.8,34.2,30.43,West,260,2.0,2.0,49,0.00,,,0.00,Wunderground v.1.15,2013-11-27 17:05:00,
2013-11-27 09:15:00,54.1,32.6,30.42,West,260,2.0,2.0,44,0.00,,,0.00,Wunderground v.1.15,2013-11-27 17:15:00,
2013-11-27 09:20:00,54.4,30.6,30.42,WSW,241,3.0,5.0,40,0.00,,,0.00,Wunderground v.1.15,2013-11-27 17:20:00,
2013-11-27 09:30:00,54.3,29.2,30.42,WSW,248,3.0,5.0,38,0.00,,,0.00,Wunderground v.1.15,2013-11-27 17:30:00,
2013-11-27 09:35:00,54.4,28.6,30.41,WSW,248,3.0,5.0,37,0.00,,,0.00,Wunderground v.1.15,2013-11-27 17:35:00,
2013-11-27 09:45:00,54.9,28.4,30.42,SW,223,3.0,5.0,36,0.00,,,0.00,Wunderground v.1.15,2013-11-27 17:45:00,
2013-11-27 09:50:00,55.4,28.2,30.42,SW,217,4.0,9.0,35,0.00,,,0.00,Wunderground v.1.15,2013-11-27 17:50:00,
2013-11-27 09:55:00,55.4,29.5,30.41,SW,225,6.0,10.0,37,0.00,,,0.00,Wunderground v.1.15,2013-11-27 17:55:00,
2013-11-27 10:00:00,55.4,30.8,30.41,SSW,210,5.0,5.0,39,0.00,,,0.00,Wunderground v.1.15,2013-11-27 18:00:00,
2013-11-27 10:10:00,54.6,32.5,30.41,South,190,4.0,4.0,43,0.00,,,0.00,Wunderground v.1.15,2013-11-27 18:10:00,
2013-11-27 10:15:00,54.4,32.3,30.41,South,183,3.0,9.0,43,0.00,,,0.00,Wunderground v.1.15,2013-11-27 18:15:00,
2013-11-27 10:25:00,55.2,31.3,30.40,South,186,5.0,12.0,40,0.00,,,0.00,Wunderground v.1.15,2013-11-27 18:25:00,
2013-11-27 10:30:00,55.8,30.5,30.39,SW,235,6.0,6.0,38,0.00,,,0.00,Wunderground v.1.15,2013-11-27 18:30:00,
2013-11-27 10:35:00,55.4,32.7,30.39,SSE,166,5.0,7.0,42,0.00,,,0.00,Wunderground v.1.15,2013-11-27 18:35:00,
2013-11-27 10:45:00,53.7,32.8,30.39,SSE,167,8.0,12.0,45,0.00,,,0.00,Wunderground v.1.15,2013-11-27 18:45:00,
2013-11-27 10:50:00,53.3,33.0,30.38,South,180,7.0,13.0,46,0.00,,,0.00,Wunderground v.1.15,2013-11-27 18:50:00,
2013-11-27 11:00:00,52.6,33.5,30.37,South,172,8.0,13.0,48,0.00,,,0.00,Wunderground v.1.15,2013-11-27 19:00:00,
2013-11-27 11:05:00,52.7,33.5,30.37,South,186,8.0,13.0,48,0.00,,,0.00,Wunderground v.1.15,2013-11-27 19:05:00,
2013-11-27 11:10:00,52.8,33.1,30.37,South,182,7.0,13.0,47,0.00,,,0.00,Wunderground v.1.15,2013-11-27 19:10:00,
2013-11-27 11:15:00,52.7,33.5,30.36,South,191,7.0,13.0,48,0.00,,,0.00,Wunderground v.1.15,2013-11-27 19:15:00,
2013-11-27 11:20:00,52.5,33.4,30.36,South,181,6.0,6.0,48,0.00,,,0.00,Wunderground v.1.15,2013-11-27 19:20:00,
2013-11-27 11:30:00,51.8,33.7,30.35,South,170,7.0,14.0,50,0.00,,,0.00,Wunderground v.1.15,2013-11-27 19:30:00,
2013-11-27 11:35:00,51.8,33.7,30.35,South,173,6.0,14.0,50,0.00,,,0.00,Wunderground v.1.15,2013-11-27 19:35:00,
2013-11-27 11:45:00,52.3,33.7,30.35,SSE,165,5.0,14.0,49,0.00,,,0.00,Wunderground v.1.15,2013-11-27 19:45:00,
2013-11-27 11:50:00,52.3,33.7,30.35,SSE,158,5.0,5.0,49,0.00,,,0.00,Wunderground v.1.15,2013-11-27 19:50:00,
2013-11-27 11:55:00,52.4,33.8,30.34,SSE,167,6.0,8.0,49,0.00,,,0.00,Wunderground v.1.15,2013-11-27 19:55:00,
2013-11-27 12:00:00,52.3,33.7,30.34,SSE,150,5.0,13.0,49,0.00,,,0.00,Wunderground v.1.15,2013-11-27 20:00:00,
2013-11-27 12:10:00,52.2,34.6,30.34,SE,143,5.0,13.0,51,0.00,,,0.00,Wunderground v.1.15,2013-11-27 20:10:00,
2013-11-27 12:20:00,52.9,35.2,30.33,SSE,155,4.0,4.0,51,0.00,,,0.00,Wunderground v.1.15,2013-11-27 20:20:00,
2013-11-27 12:30:00,52.8,35.6,30.33,SE,138,4.0,4.0,52,0.00,,,0.00,Wunderground v.1.15,2013-11-27 20:30:00,
2013-11-27 12:35:00,53.0,35.8,30.33,SSE,151,4.0,11.0,52,0.00,,,0.00,Wunderground v.1.15,2013-11-27 20:35:00,
2013-11-27 12:45:00,53.5,35.8,30.33,SSE,148,5.0,11.0,51,0.00,,,0.00,Wunderground v.1.15,2013-11-27 20:45:00,
2013-11-27 12:50:00,53.8,35.6,30.33,South,179,6.0,8.0,50,0.00,,,0.00,Wunderground v.1.15,2013-11-27 20:50:00,
2013-11-27 13:00:00,54.2,34.9,30.32,SE,127,4.0,8.0,48,0.00,,,0.00,Wunderground v.1.15,2013-11-27 21:00:00,
2013-11-27 13:05:00,54.1,34.8,30.32,South,169,4.0,8.0,48,0.00,,,0.00,Wunderground v.1.15,2013-11-27 21:05:00,
2013-11-27 13:15:00,54.5,35.2,30.31,South,174,5.0,8.0,48,0.00,,,0.00,Wunderground v.1.15,2013-11-27 21:15:00,
2013-11-27 13:20:00,54.5,35.2,30.31,SE,135,5.0,5.0,48,0.00,,,0.00,Wunderground v.1.15,2013-11-27 21:20:00,
2013-11-27 13:30:00,54.7,34.8,30.31,SE,139,6.0,10.0,47,0.00,,,0.00,Wunderground v.1.15,2013-11-27 21:30:00,
2013-11-27 13:35:00,54.8,34.9,30.30,SSE,165,6.0,10.0,47,0.00,,,0.00,Wunderground v.1.15,2013-11-27 21:35:00,
2013-11-27 13:45:00,54.5,34.7,30.30,SSE,152,7.0,10.0,47,0.00,,,0.00,Wunderground v.1.15,2013-11-27 21:45:00,
2013-11-27 13:50:00,54.8,34.9,30.30,SSE,148,6.0,12.0,47,0.00,,,0.00,Wunderground v.1.15,2013-11-27 21:50:00,
2013-11-27 14:00:00,54.9,34.5,30.30,South,169,6.0,12.0,46,0.00,,,0.00,Wunderground v.1.15,2013-11-27 22:00:00,
2013-11-27 14:05:00,54.8,34.4,30.30,South,179,6.0,12.0,46,0.00,,,0.00,Wunderground v.1.15,2013-11-27 22:05:00,
2013-11-27 14:15:00,54.8,34.4,30.30,South,177,5.0,12.0,46,0.00,,,0.00,Wunderground v.1.15,2013-11-27 22:15:00,
2013-11-27 14:20:00,54.9,34.5,30.30,SSE,148,5.0,12.0,46,0.00,,,0.00,Wunderground v.1.15,2013-11-27 22:20:00,
2013-11-27 14:25:00,55.0,34.0,30.30,SE,140,5.0,12.0,45,0.00,,,0.00,Wunderground v.1.15,2013-11-27 22:25:00,
2013-11-27 14:35:00,55.0,34.0,30.30,SSE,148,6.0,6.0,45,0.00,,,0.00,Wunderground v.1.15,2013-11-27 22:35:00,
2013-11-27 14:45:00,54.7,33.2,30.30,ESE,113,7.0,7.0,44,0.00,,,0.00,Wunderground v.1.15,2013-11-27 22:45:00,
2013-11-27 14:50:00,54.8,33.3,30.30,SSE,153,6.0,10.0,44,0.00,,,0.00,Wunderground v.1.15,2013-11-27 22:50:00,
2013-11-27 15:00:00,54.4,33.5,30.30,SSE,152,7.0,10.0,45,0.00,,,0.00,Wunderground v.1.15,2013-11-27 23:00:00,
2013-11-27 15:05:00,54.5,33.0,30.29,SSE,154,7.0,10.0,44,0.00,,,0.00,Wunderground v.1.15,2013-11-27 23:05:00,
2013-11-27 15:15:00,54.6,33.1,30.29,SSE,168,5.0,10.0,44,0.00,,,0.00,Wunderground v.1.15,2013-11-27 23:15:00,
2013-11-27 15:20:00,54.6,32.5,30.30,South,174,5.0,5.0,43,0.00,,,0.00,Wunderground v.1.15,2013-11-27 23:20:00,
2013-11-27 15:25:00,54.2,32.7,30.30,South,169,5.0,6.0,44,0.00,,,0.00,Wunderground v.1.15,2013-11-27 23:25:00,
2013-11-27 15:30:00,54.1,32.6,30.30,South,177,5.0,5.0,44,0.00,,,0.00,Wunderground v.1.15,2013-11-27 23:30:00,
2013-11-27 15:35:00,54.1,32.6,30.30,SSE,151,5.0,11.0,44,0.00,,,0.00,Wunderground v.1.15,2013-11-27 23:35:00,
2013-11-27 15:45:00,53.8,32.4,30.30,SSE,149,5.0,11.0,44,0.00,,,0.00,Wunderground v.1.15,2013-11-27 23:45:00,
2013-11-27 15:50:00,53.7,32.3,30.30,SSE,158,4.0,4.0,44,0.00,,,0.00,Wunderground v.1.15,2013-11-27 23:50:00,
2013-11-27 16:00:00,53.3,32.5,30.30,SSE,167,4.0,10.0,45,0.00,,,0.00,Wunderground v.1.15,2013-11-28 00:00:00,
2013-11-27 16:05:00,53.0,32.8,30.31,SSE,152,4.0,10.0,46,0.00,,,0.00,Wunderground v.1.15,2013-11-28 00:05:00,
2013-11-27 16:10:00,52.7,32.5,30.31,SSE,162,4.0,10.0,46,0.00,,,0.00,Wunderground v.1.15,2013-11-28 00:10:00,
2013-11-27 16:15:00,52.5,32.8,30.31,SSE,162,4.0,10.0,47,0.00,,,0.00,Wunderground v.1.15,2013-11-28 00:15:00,
2013-11-27 16:25:00,51.9,32.8,30.31,South,169,4.0,5.0,48,0.00,,,0.00,Wunderground v.1.15,2013-11-28 00:25:00,
2013-11-27 16:35:00,51.3,32.8,30.31,SSE,156,2.0,10.0,49,0.00,,,0.00,Wunderground v.1.15,2013-11-28 00:35:00,
2013-11-27 16:45:00,50.7,33.2,30.32,SSE,156,1.0,10.0,51,0.00,,,0.00,Wunderground v.1.15,2013-11-28 00:45:00,
2013-11-27 16:50:00,50.5,33.0,30.31,SSE,156,0.0,8.0,51,0.00,,,0.00,Wunderground v.1.15,2013-11-28 00:50:00,
2013-11-27 17:25:00,48.2,33.2,30.32,SSE,156,0.0,8.0,56,0.00,,,0.00,Wunderground v.1.15,2013-11-28 01:25:00,
2013-11-27 17:35:00,47.2,33.2,30.32,SSE,156,0.0,8.0,58,0.00,,,0.00,Wunderground v.1.15,2013-11-28 01:35:00,
2013-11-27 17:45:00,46.3,33.6,30.32,SSE,156,1.0,3.0,61,0.00,,,0.00,Wunderground v.1.15,2013-11-28 01:45:00,
2013-11-27 17:50:00,45.8,33.1,30.32,SSE,156,1.0,2.0,61,0.00,,,0.00,Wunderground v.1.15,2013-11-28 01:50:00,
2013-11-27 18:00:00,45.3,33.4,30.32,SSE,156,1.0,1.0,63,0.00,,,0.00,Wunderground v.1.15,2013-11-28 02:00:00,
2013-11-27 18:05:00,45.0,33.2,30.32,SSE,156,0.0,2.0,63,0.00,,,0.00,Wunderground v.1.15,2013-11-28 02:05:00,
2013-11-27 18:15:00,44.6,33.2,30.32,SSE,156,0.0,2.0,64,0.00,,,0.00,Wunderground v.1.15,2013-11-28 02:15:00,
2013-11-27 18:20:00,44.4,33.4,30.33,SSE,156,0.0,2.0,65,0.00,,,0.00,Wunderground v.1.15,2013-11-28 02:20:00,
2013-11-27 18:25:00,44.3,32.9,30.33,SSE,156,1.0,2.0,64,0.00,,,0.00,Wunderground v.1.15,2013-11-28 02:25:00,
2013-11-27 18:30:00,44.3,32.9,30.33,SSE,156,1.0,1.0,64,0.00,,,0.00,Wunderground v.1.15,2013-11-28 02:30:00,
2013-11-27 18:35:00,44.3,32.9,30.32,SSE,156,0.0,2.0,64,0.00,,,0.00,Wunderground v.1.15,2013-11-28 02:35:00,
2013-11-27 18:45:00,44.2,32.8,30.32,SSE,156,0.0,2.0,64,0.00,,,0.00,Wunderground v.1.15,2013-11-28 02:45:00,
2013-11-27 18:50:00,44.2,32.8,30.32,SSE,156,0.0,2.0,64,0.00,,,0.00,Wunderground v.1.15,2013-11-28 02:50:00,
2013-11-27 19:00:00,43.6,32.2,30.33,WSW,255,1.0,1.0,64,0.00,,,0.00,Wunderground v.1.15,2013-11-28 03:00:00,
2013-11-27 19:05:00,43.4,32.4,30.33,WSW,255,1.0,2.0,65,0.00,,,0.00,Wunderground v.1.15,2013-11-28 03:05:00,
2013-11-27 19:15:00,43.2,32.2,30.33,WSW,255,2.0,2.0,65,0.00,,,0.00,Wunderground v.1.15,2013-11-28 03:15:00,
2013-11-27 19:20:00,43.2,32.2,30.33,WSW,257,2.0,2.0,65,0.00,,,0.00,Wunderground v.1.15,2013-11-28 03:20:00,
2013-11-27 19:25:00,43.4,32.4,30.33,WSW,258,2.0,3.0,65,0.00,,,0.00,Wunderground v.1.15,2013-11-28 03:25:00,
2013-11-27 19:35:00,43.8,32.0,30.33,West,261,2.0,3.0,63,0.00,,,0.00,Wunderground v.1.15,2013-11-28 03:35:00,
2013-11-27 19:45:00,43.3,31.9,30.33,WSW,250,2.0,5.0,64,0.00,,,0.00,Wunderground v.1.15,2013-11-28 03:45:00,
2013-11-27 19:50:00,43.2,31.8,30.33,WSW,246,3.0,3.0,64,0.00,,,0.00,Wunderground v.1.15,2013-11-28 03:50:00,
2013-11-27 19:55:00,43.4,31.6,30.33,West,264,3.0,3.0,63,0.00,,,0.00,Wunderground v.1.15,2013-11-28 03:55:00,
2013-11-27 20:05:00,44.3,31.7,30.33,West,273,2.0,3.0,61,0.00,,,0.00,Wunderground v.1.15,2013-11-28 04:05:00,
2013-11-27 20:15:00,44.7,31.7,30.33,West,273,1.0,3.0,60,0.00,,,0.00,Wunderground v.1.15,2013-11-28 04:15:00,
2013-11-27 20:20:00,44.8,31.8,30.33,West,273,1.0,1.0,60,0.00,,,0.00,Wunderground v.1.15,2013-11-28 04:20:00,
2013-11-27 20:30:00,44.6,31.1,30.33,West,273,1.0,6.0,59,0.00,,,0.00,Wunderground v.1.15,2013-11-28 04:30:00,
2013-11-27 20:35:00,44.9,31.0,30.34,West,270,2.0,6.0,58,0.00,,,0.00,Wunderground v.1.15,2013-11-28 04:35:00,
2013-11-27 20:45:00,45.8,31.0,30.33,West,262,4.0,6.0,56,0.00,,,0.00,Wunderground v.1.15,2013-11-28 04:45:00,
2013-11-27 20:50:00,46.0,31.2,30.33,West,264,4.0,4.0,56,0.00,,,0.00,Wunderground v.1.15,2013-11-28 04:50:00,
2013-11-27 21:00:00,45.7,30.9,30.33,West,271,3.0,3.0,56,0.00,,,0.00,Wunderground v.1.15,2013-11-28 05:00:00,
2013-11-27 21:05:00,45.5,30.7,30.33,West,279,3.0,4.0,56,0.00,,,0.00,Wunderground v.1.15,2013-11-28 05:05:00,
2013-11-27 21:10:00,45.4,31.0,30.33,WNW,285,3.0,4.0,57,0.00,,,0.00,Wunderground v.1.15,2013-11-28 05:10:00,
2013-11-27 21:15:00,45.2,31.3,30.34,NW,308,3.0,4.0,58,0.00,,,0.00,Wunderground v.1.15,2013-11-28 05:15:00,
2013-11-27 21:20:00,44.8,30.9,30.33,WNW,283,3.0,3.0,58,0.00,,,0.00,Wunderground v.1.15,2013-11-28 05:20:00,
2013-11-27 21:25:00,44.4,31.0,30.33,WNW,283,2.0,7.0,59,0.00,,,0.00,Wunderground v.1.15,2013-11-28 05:25:00,
2013-11-27 21:30:00,44.0,31.0,30.33,West,277,1.0,7.0,60,0.00,,,0.00,Wunderground v.1.15,2013-11-28 05:30:00,
2013-11-27 21:40:00,43.9,30.9,30.33,West,271,3.0,3.0,60,0.00,,,0.00,Wunderground v.1.15,2013-11-28 05:40:00,
2013-11-27 21:45:00,44.1,30.7,30.33,West,271,2.0,7.0,59,0.00,,,0.00,Wunderground v.1.15,2013-11-28 05:45:00,
2013-11-27 21:50:00,44.3,30.9,30.33,WNW,286,3.0,6.0,59,0.00,,,0.00,Wunderground v.1.15,2013-11-28 05:50:00,
2013-11-27 22:00:00,44.6,30.7,30.33,West,277,2.0,2.0,58,0.00,,,0.00,Wunderground v.1.15,2013-11-28 06:00:00,
2013-11-27 22:05:00,44.2,30.8,30.33,West,277,2.0,6.0,59,0.00,,,0.00,Wunderground v.1.15,2013-11-28 06:05:00,
2013-11-27 22:15:00,43.4,30.8,30.33,West,277,2.0,6.0,61,0.00,,,0.00,Wunderground v.1.15,2013-11-28 06:15:00,
2013-11-27 22:20:00,43.7,31.1,30.33,West,280,3.0,6.0,61,0.00,,,0.00,Wunderground v.1.15,2013-11-28 06:20:00,
2013-11-27 22:25:00,43.8,30.8,30.33,West,278,3.0,6.0,60,0.00,,,0.00,Wunderground v.1.15,2013-11-28 06:25:00,
2013-11-27 22:35:00,44.3,30.9,30.32,West,264,4.0,6.0,59,0.00,,,0.00,Wunderground v.1.15,2013-11-28 06:35:00,
2013-11-27 22:45:00,43.4,30.8,30.32,WNW,287,4.0,6.0,61,0.00,,,0.00,Wunderground v.1.15,2013-11-28 06:45:00,
2013-11-27 22:50:00,43.1,30.6,30.32,WNW,285,3.0,3.0,61,0.00,,,0.00,Wunderground v.1.15,2013-11-28 06:50:00,
2013-11-27 23:00:00,42.4,30.7,30.32,WNW,285,1.0,1.0,63,0.00,,,0.00,Wunderground v.1.15,2013-11-28 07:00:00,
2013-11-27 23:05:00,41.9,30.6,30.32,WNW,285,0.0,7.0,64,0.00,,,0.00,Wunderground v.1.15,2013-11-28 07:05:00,
2013-11-27 23:15:00,41.4,30.5,30.32,WNW,285,0.0,7.0,65,0.00,,,0.00,Wunderground v.1.15,2013-11-28 07:15:00,
2013-11-27 23:20:00,41.1,30.6,30.33,WNW,285,1.0,6.0,66,0.00,,,0.00,Wunderground v.1.15,2013-11-28 07:20:00,
2013-11-27 23:30:00,41.3,30.4,30.32,West,281,1.0,6.0,65,0.00,,,0.00,Wunderground v.1.15,2013-11-28 07:30:00,
2013-11-27 23:40:00,43.0,30.5,30.32,West,276,2.0,6.0,61,0.00,,,0.00,Wunderground v.1.15,2013-11-28 07:40:00,
2013-11-27 23:45:00,43.3,29.9,30.32,West,271,2.0,6.0,59,0.00,,,0.00,Wunderground v.1.15,2013-11-28 07:45:00,
2013-11-27 23:50:00,43.5,30.1,30.32,WNW,284,3.0,5.0,59,0.00,,,0.00,Wunderground v.1.15,2013-11-28 07:50:00,